createdAt,value
2018-09-04T00:00:54.401Z,13.43
2018-09-04T00:03:29.895Z,12.83
2018-09-04T00:06:04.970Z,12.20
2018-09-04T00:08:39.419Z,12.50
2018-09-04T00:11:15.528Z,12.50
2018-09-04T00:13:49.618Z,13.50
2018-09-04T00:16:23.936Z,13.43
2018-09-04T00:18:58.206Z,13.40
2018-09-04T00:21:33.907Z,14.10
2018-09-04T00:24:09.019Z,15.10
2018-09-04T00:26:43.234Z,13.97
2018-09-04T00:29:17.386Z,16.87
2018-09-04T00:31:52.847Z,15.27
2018-09-04T00:34:27.097Z,14.90
2018-09-04T00:37:01.783Z,13.60
2018-09-04T00:39:40.191Z,15.70
2018-09-04T00:42:14.581Z,14.70
2018-09-04T00:44:48.704Z,13.80
2018-09-04T00:47:24.472Z,15.93
2018-09-04T00:49:58.586Z,15.00
2018-09-04T00:52:33.123Z,15.43
2018-09-04T00:55:07.314Z,12.97
2018-09-04T00:57:42.719Z,14.93
2018-09-04T01:00:16.848Z,16.37
2018-09-04T01:02:58.351Z,15.30
2018-09-04T01:05:32.340Z,14.47
2018-09-04T01:08:07.175Z,15.67
2018-09-04T01:10:42.723Z,17.30
2018-09-04T01:13:18.520Z,14.10
2018-09-04T01:15:52.587Z,16.03
2018-09-04T01:18:26.966Z,16.30
2018-09-04T01:21:01.984Z,15.67
2018-09-04T01:23:42.466Z,17.20
2018-09-04T01:26:16.703Z,15.40
2018-09-04T01:28:52.243Z,16.53
2018-09-04T01:31:27.868Z,14.47
2018-09-04T01:34:02.342Z,16.07
2018-09-04T01:36:37.999Z,16.10
2018-09-04T01:39:12.987Z,15.77
2018-09-04T01:41:48.430Z,16.90
2018-09-04T01:44:29.756Z,17.23
2018-09-04T01:47:05.615Z,14.23
2018-09-04T01:49:39.791Z,14.10
2018-09-04T01:52:14.018Z,14.50
2018-09-04T01:54:48.204Z,14.70
2018-09-04T01:57:23.875Z,17.33
2018-09-04T01:59:57.982Z,15.90
2018-09-04T02:02:33.428Z,16.00
2018-09-04T02:05:08.962Z,14.80
2018-09-04T02:07:43.597Z,15.70
2018-09-04T02:10:19.138Z,15.70
2018-09-04T02:12:53.128Z,16.07
2018-09-04T02:15:27.822Z,15.67
2018-09-04T02:18:02.022Z,15.50
2018-09-04T02:20:37.445Z,15.50
2018-09-04T02:23:13.293Z,14.47
2018-09-04T02:25:48.499Z,15.73
2018-09-04T02:28:22.703Z,15.30
2018-09-04T02:31:01.684Z,15.03
2018-09-04T02:33:36.308Z,15.27
2018-09-04T02:36:10.558Z,15.53
2018-09-04T02:38:44.902Z,14.30
2018-09-04T02:41:20.250Z,14.80
2018-09-04T02:43:55.839Z,14.10
2018-09-04T02:46:31.491Z,15.40
2018-09-04T02:49:06.316Z,15.63
2018-09-04T02:51:40.490Z,13.93
2018-09-04T02:54:15.935Z,13.67
2018-09-04T02:56:58.389Z,14.77
2018-09-04T02:59:33.178Z,13.93
2018-09-04T03:02:07.209Z,13.90
2018-09-04T03:04:41.857Z,12.43
2018-09-04T03:07:15.917Z,14.00
2018-09-04T03:10:06.917Z,12.90
2018-09-04T03:12:42.372Z,12.53
2018-09-04T03:15:16.891Z,12.70
2018-09-04T03:17:52.326Z,11.97
2018-09-04T03:20:27.498Z,12.27
2018-09-04T03:23:03.116Z,13.70
2018-09-04T03:25:38.459Z,12.70
2018-09-04T03:28:12.727Z,12.30
2018-09-04T03:30:48.397Z,13.37
2018-09-04T03:33:22.483Z,12.97
2018-09-04T03:35:57.995Z,12.97
2018-09-04T03:38:32.247Z,14.57
2018-09-04T03:41:08.172Z,15.87
2018-09-04T03:43:42.347Z,13.30
2018-09-04T03:46:18.130Z,15.87
2018-09-04T03:48:52.646Z,16.20
2018-09-04T03:51:26.954Z,14.90
2018-09-04T03:54:01.247Z,17.37
2018-09-04T03:56:35.307Z,17.80
2018-09-04T03:59:10.717Z,15.47
2018-09-04T04:01:46.001Z,17.40
2018-09-04T04:04:20.224Z,16.53
2018-09-04T04:06:54.326Z,17.10
2018-09-04T04:09:29.885Z,17.57
2018-09-04T04:12:05.846Z,17.40
2018-09-04T04:14:40.234Z,18.90
2018-09-04T04:17:16.025Z,18.80
2018-09-04T04:19:51.310Z,18.57
2018-09-04T04:22:27.098Z,19.73
2018-09-04T04:25:02.347Z,20.07
2018-09-04T04:27:36.483Z,19.23
2018-09-04T04:30:12.190Z,18.63
2018-09-04T04:32:46.202Z,17.90
2018-09-04T04:35:21.676Z,17.40
2018-09-04T04:37:57.329Z,20.10
2018-09-04T04:40:32.923Z,18.77
2018-09-04T04:43:07.148Z,18.07
2018-09-04T04:45:43.627Z,19.00
2018-09-04T04:48:19.335Z,18.53
2018-09-04T04:50:53.889Z,18.40
2018-09-04T04:53:28.003Z,16.87
2018-09-04T04:56:02.311Z,17.90
2018-09-04T04:58:37.763Z,18.67
2018-09-04T05:01:12.039Z,17.93
2018-09-04T05:03:46.218Z,18.70
2018-09-04T05:06:20.470Z,17.63
2018-09-04T05:08:55.076Z,19.97
2018-09-04T05:11:30.925Z,18.07
2018-09-04T05:14:05.176Z,20.10
2018-09-04T05:16:39.341Z,18.90
2018-09-04T05:19:14.790Z,16.60
2018-09-04T05:21:50.958Z,17.50
2018-09-04T05:24:26.170Z,19.07
2018-09-04T05:27:01.452Z,18.27
2018-09-04T05:29:35.567Z,21.73
2018-09-04T05:32:23.700Z,19.30
2018-09-04T05:35:02.043Z,18.83
2018-09-04T05:37:37.387Z,20.70
2018-09-04T05:40:13.854Z,18.23
2018-09-04T05:42:53.891Z,19.60
2018-09-04T05:45:29.615Z,20.57
2018-09-04T05:48:08.179Z,20.23
2018-09-04T05:50:44.251Z,19.63
2018-09-04T05:53:18.511Z,19.97
2018-09-04T05:55:53.143Z,20.17
2018-09-04T05:58:28.542Z,21.90
2018-09-04T06:01:03.717Z,21.07
2018-09-04T06:03:37.824Z,22.37
2018-09-04T06:06:12.247Z,21.60
2018-09-04T06:08:46.682Z,18.10
2018-09-04T06:11:22.143Z,21.13
2018-09-04T06:13:56.227Z,22.17
2018-09-04T06:16:31.795Z,20.83
2018-09-04T06:19:07.366Z,22.30
2018-09-04T06:21:41.703Z,21.97
2018-09-04T06:24:20.360Z,20.63
2018-09-04T06:26:54.627Z,19.93
2018-09-04T06:29:28.651Z,23.00
2018-09-04T06:32:04.030Z,22.40
2018-09-04T06:34:39.425Z,22.33
2018-09-04T06:37:13.660Z,21.30
2018-09-04T06:39:49.982Z,21.70
2018-09-04T06:42:24.234Z,21.70
2018-09-04T06:44:58.538Z,22.60
2018-09-04T06:47:34.316Z,20.40
2018-09-04T06:50:09.567Z,22.20
2018-09-04T06:52:44.361Z,24.37
2018-09-04T06:55:18.622Z,22.93
2018-09-04T06:57:54.183Z,24.33
2018-09-04T07:00:28.330Z,23.33
2018-09-04T07:03:03.706Z,23.57
2018-09-04T07:05:37.930Z,25.00
2018-09-04T07:08:13.246Z,24.20
2018-09-04T07:10:48.826Z,25.10
2018-09-04T07:13:24.519Z,24.37
2018-09-04T07:15:58.785Z,26.43
2018-09-04T07:18:34.270Z,25.13
2018-09-04T07:21:09.761Z,23.60
2018-09-04T07:23:46.926Z,25.10
2018-09-04T07:26:21.022Z,23.77
2018-09-04T07:28:55.367Z,24.77
2018-09-04T07:31:30.682Z,25.80
2018-09-04T08:19:37.967Z,25.87
2018-09-04T08:31:12.809Z,24.97
2018-09-04T08:36:39.296Z,24.87
2018-09-04T08:48:09.859Z,23.40
2018-09-04T08:56:59.750Z,25.67
2018-09-04T09:35:11.743Z,26.53
2018-09-04T09:52:31.021Z,26.47
2018-09-04T09:55:06.702Z,25.60
2018-09-04T10:00:41.034Z,26.13
2018-09-04T12:27:41.540Z,22.80
2018-09-04T12:30:17.568Z,23.67
2018-09-04T12:32:52.525Z,24.73
2018-09-04T12:35:26.700Z,22.40
2018-09-04T12:38:01.237Z,22.50
2018-09-04T12:40:38.599Z,23.17
2018-09-04T12:43:12.925Z,22.70
2018-09-04T12:45:53.896Z,23.07
2018-09-04T12:48:29.388Z,19.90
2018-09-04T12:51:12.036Z,21.27
2018-09-04T12:53:50.468Z,20.17
2018-09-04T12:56:25.486Z,21.00
2018-09-04T12:59:00.973Z,20.00
2018-09-04T13:01:38.404Z,21.60
2018-09-04T13:04:15.330Z,19.00
2018-09-04T13:06:49.580Z,19.73
2018-09-04T13:09:26.791Z,17.73
2018-09-04T13:12:01.905Z,19.87
2018-09-04T13:14:36.204Z,17.80
2018-09-04T13:17:15.575Z,17.70
2018-09-04T13:19:49.759Z,15.33
2018-09-04T13:22:31.179Z,16.57
2018-09-04T13:25:06.687Z,17.80
2018-09-04T13:27:41.068Z,17.70
2018-09-04T13:30:16.628Z,17.20
2018-09-04T13:32:51.034Z,17.40
2018-09-04T13:35:25.333Z,17.60
2018-09-04T13:37:59.552Z,16.57
2018-09-04T13:40:34.895Z,16.90
2018-09-04T13:43:10.296Z,17.90
2018-09-04T13:45:46.092Z,17.60
2018-09-04T13:48:24.648Z,17.07
2018-09-04T13:50:58.770Z,13.90
2018-09-04T13:53:33.139Z,16.60
2018-09-04T13:56:08.505Z,17.23
2018-09-04T13:58:44.145Z,17.90
2018-09-04T14:01:18.346Z,15.87
2018-09-04T14:03:52.778Z,15.67
2018-09-04T14:06:27.038Z,15.00
2018-09-04T14:09:01.642Z,15.20
2018-09-04T14:11:37.079Z,15.57
2018-09-04T14:14:12.647Z,15.57
2018-09-04T14:16:46.751Z,16.87
2018-09-04T14:19:22.063Z,16.57
2018-09-04T14:21:56.299Z,16.37
2018-09-04T14:24:32.137Z,16.50
2018-09-04T14:27:06.400Z,18.80
2018-09-04T14:29:53.658Z,16.57
2018-09-04T14:32:24.339Z,16.17
2018-09-04T14:34:58.672Z,15.80
2018-09-04T14:37:32.947Z,15.73
2018-09-04T14:40:08.475Z,15.97
2018-09-04T14:42:42.695Z,16.10
2018-09-04T14:45:16.882Z,18.10
2018-09-04T14:47:52.448Z,16.90
2018-09-04T14:50:26.685Z,15.20
2018-09-04T14:53:01.901Z,14.03
2018-09-04T14:55:35.979Z,16.13
2018-09-04T14:58:11.480Z,15.97
2018-09-04T15:00:46.967Z,15.20
2018-09-04T15:03:23.813Z,15.23
2018-09-04T15:05:58.266Z,16.77
2018-09-04T15:08:34.219Z,17.40
2018-09-04T15:11:15.486Z,18.73
2018-09-04T15:13:50.096Z,16.17
2018-09-04T15:16:26.507Z,16.23
2018-09-04T15:19:02.303Z,17.00
2018-09-04T15:21:36.682Z,17.27
2018-09-04T15:24:12.505Z,15.47
2018-09-04T15:26:46.767Z,17.20
2018-09-04T15:29:21.136Z,16.50
2018-09-04T15:31:56.437Z,16.23
2018-09-04T15:34:30.762Z,17.70
2018-09-04T15:37:06.303Z,16.47
2018-09-04T15:39:40.548Z,18.93
2018-09-04T15:42:14.686Z,16.07
2018-09-04T15:44:48.791Z,16.60
2018-09-04T15:47:24.340Z,17.57
2018-09-04T15:49:58.554Z,17.10
2018-09-04T15:52:34.031Z,18.10
2018-09-04T15:55:08.334Z,17.47
2018-09-04T15:57:44.080Z,18.30
2018-09-04T16:00:18.416Z,16.47
2018-09-04T16:02:53.970Z,18.30
2018-09-04T16:05:28.303Z,19.40
2018-09-04T16:08:03.578Z,18.17
2018-09-04T16:10:49.338Z,18.20
2018-09-04T16:13:24.747Z,19.20
2018-09-04T16:15:58.958Z,18.50
2018-09-04T16:18:34.350Z,17.60
2018-09-04T16:21:08.555Z,20.10
2018-09-04T16:23:47.539Z,19.80
2018-09-04T16:26:21.806Z,19.57
2018-09-04T16:28:57.403Z,20.00
2018-09-04T16:31:32.871Z,19.07
2018-09-04T16:34:06.977Z,20.27
2018-09-04T16:36:41.375Z,19.50
2018-09-04T16:39:16.742Z,18.97
2018-09-04T16:41:51.139Z,18.17
2018-09-04T16:44:25.348Z,18.03
2018-09-04T16:47:00.623Z,18.90
2018-09-04T16:49:36.447Z,16.77
2018-09-04T16:52:21.588Z,17.40
2018-09-04T16:54:56.595Z,17.73
2018-09-04T16:57:32.949Z,17.00
2018-09-04T17:00:08.053Z,17.83
2018-09-04T17:02:42.682Z,17.70
2018-09-04T17:05:18.544Z,17.03
2018-09-04T17:07:54.493Z,17.07
2018-09-04T17:10:29.926Z,16.60
2018-09-04T17:13:08.577Z,16.73
2018-09-04T17:15:43.579Z,16.93
2018-09-04T17:18:18.751Z,17.30
2018-09-04T17:20:54.359Z,18.47
2018-09-04T17:23:29.739Z,16.60
2018-09-04T17:26:05.760Z,17.03
2018-09-04T17:28:39.910Z,17.43
2018-09-04T17:31:15.394Z,15.20
2018-09-04T17:33:59.923Z,16.97
2018-09-04T17:36:34.332Z,16.80
2018-09-04T17:39:08.923Z,17.80
2018-09-04T17:41:43.291Z,16.27
2018-09-04T17:44:17.575Z,16.40
2018-09-04T17:46:53.121Z,16.13
2018-09-04T17:49:27.266Z,17.40
2018-09-04T17:52:01.461Z,17.00
2018-09-04T17:54:37.389Z,15.77
2018-09-04T17:57:12.682Z,16.60
2018-09-04T17:59:46.786Z,16.83
2018-09-04T18:02:21.167Z,17.00
2018-09-04T18:04:56.821Z,16.83
2018-09-04T18:07:31.535Z,17.20
2018-09-04T18:10:07.060Z,18.70
2018-09-04T18:12:44.872Z,17.03
2018-09-04T18:15:18.976Z,17.90
2018-09-04T18:17:54.520Z,16.73
2018-09-04T18:20:30.178Z,17.10
2018-09-04T18:23:05.850Z,17.90
2018-09-04T18:25:41.299Z,19.20
2018-09-04T18:28:15.548Z,17.20
2018-09-04T18:30:50.971Z,16.87
2018-09-04T18:33:25.079Z,16.90
2018-09-04T18:35:59.252Z,17.23
2018-09-04T18:38:33.541Z,18.70
2018-09-04T18:41:08.143Z,16.87
2018-09-04T18:43:43.004Z,18.27
2018-09-04T18:46:18.881Z,18.30
2018-09-04T18:48:55.288Z,17.97
2018-09-04T18:51:29.790Z,18.60
2018-09-04T18:54:06.156Z,19.70
2018-09-04T18:56:40.797Z,21.40
2018-09-04T18:59:17.868Z,21.73
2018-09-04T19:01:54.631Z,20.13
2018-09-04T19:04:30.039Z,22.17
2018-09-04T19:07:08.056Z,21.30
2018-09-04T19:09:44.572Z,21.37
2018-09-04T19:12:21.706Z,19.80
2018-09-04T19:14:57.531Z,19.73
2018-09-04T19:17:34.472Z,21.13
2018-09-04T19:20:08.962Z,21.00
2018-09-04T19:22:45.921Z,21.17
2018-09-04T19:25:22.950Z,20.30
2018-09-04T19:27:57.977Z,22.40
2018-09-04T19:30:33.811Z,21.47
2018-09-04T19:33:10.544Z,21.70
2018-09-04T19:35:45.192Z,24.00
2018-09-04T19:38:20.145Z,21.83
2018-09-04T19:40:54.404Z,19.43
2018-09-04T19:43:29.251Z,21.67
2018-09-04T19:46:04.756Z,22.80
2018-09-04T19:48:39.811Z,21.80
2018-09-04T19:51:14.100Z,19.93
2018-09-04T19:53:49.758Z,21.10
2018-09-04T19:56:24.071Z,21.90
2018-09-04T19:58:59.843Z,21.30
2018-09-04T20:01:36.521Z,21.00
2018-09-04T20:04:11.360Z,20.60
2018-09-04T20:06:45.488Z,20.57
2018-09-04T20:09:29.510Z,20.53
2018-09-04T20:12:04.924Z,21.17
2018-09-04T20:14:41.236Z,19.53
2018-09-04T20:17:17.071Z,20.60
2018-09-04T20:19:51.664Z,21.07
2018-09-04T20:22:25.743Z,20.70
2018-09-04T20:25:00.963Z,20.67
2018-09-04T20:27:34.962Z,21.37
2018-09-04T20:30:10.744Z,23.30
2018-09-04T20:32:46.479Z,22.80
2018-09-04T20:35:21.112Z,21.90
2018-09-04T20:37:55.286Z,22.13
2018-09-04T20:40:30.579Z,22.57
2018-09-04T20:43:06.126Z,21.20
2018-09-04T20:45:46.379Z,23.93
2018-09-04T20:48:20.695Z,23.00
2018-09-04T20:50:54.841Z,20.80
2018-09-04T20:53:29.243Z,21.90
2018-09-04T20:56:04.881Z,21.30
2018-09-04T20:58:46.512Z,22.47
2018-09-04T21:01:26.587Z,23.57
2018-09-04T21:04:06.566Z,21.77
2018-09-04T21:06:43.468Z,21.70
2018-09-04T21:09:34.071Z,21.93
2018-09-04T21:12:09.799Z,22.93
2018-09-04T21:14:48.386Z,27.00
2018-09-04T21:17:24.492Z,25.67
2018-09-04T21:19:59.011Z,22.63
2018-09-04T21:22:43.787Z,25.20
2018-09-04T21:25:19.129Z,22.93
2018-09-04T21:27:53.579Z,23.37
2018-09-04T21:30:30.720Z,23.20
2018-09-04T21:33:15.061Z,22.57
2018-09-04T21:35:50.097Z,20.90
2018-09-04T21:38:24.672Z,21.70
2018-09-04T21:40:59.090Z,24.50
2018-09-04T21:43:33.391Z,20.20
2018-09-04T21:46:09.889Z,21.40
2018-09-04T21:48:44.391Z,22.30
2018-09-04T21:51:20.711Z,23.20
2018-09-04T21:53:55.975Z,23.27
2018-09-04T21:56:30.494Z,20.67
2018-09-04T21:59:06.770Z,24.10
2018-09-04T22:01:42.807Z,21.97
2018-09-04T22:04:17.458Z,23.20
2018-09-04T22:06:51.926Z,22.37
2018-09-04T22:09:29.342Z,23.63
2018-09-04T22:12:05.443Z,22.27
2018-09-04T22:14:41.624Z,22.13
2018-09-04T22:17:17.652Z,22.30
2018-09-04T22:19:53.007Z,23.50
2018-09-04T22:22:27.067Z,21.60
2018-09-04T22:25:02.648Z,21.33
2018-09-04T22:27:37.092Z,22.00
2018-09-04T22:30:16.934Z,21.63
2018-09-04T22:32:53.147Z,22.03
2018-09-04T22:35:28.107Z,22.27
2018-09-04T22:38:03.386Z,23.37
2018-09-04T22:40:38.355Z,22.37
2018-09-04T22:43:13.222Z,22.17
2018-09-04T22:45:48.595Z,22.87
2018-09-04T22:48:23.837Z,23.47
2018-09-04T22:51:05.915Z,21.77
2018-09-04T22:53:43.863Z,23.73
2018-09-04T22:56:18.820Z,23.10
2018-09-04T22:58:54.438Z,22.80
2018-09-04T23:01:29.155Z,21.67
2018-09-04T23:04:04.595Z,21.83
2018-09-04T23:06:39.172Z,22.50
2018-09-04T23:09:14.155Z,22.00
2018-09-04T23:11:49.754Z,22.33
2018-09-04T23:14:24.844Z,22.20
2018-09-04T23:17:02.170Z,20.93
2018-09-04T23:19:37.979Z,22.50
2018-09-04T23:22:12.494Z,23.30
2018-09-04T23:24:47.935Z,22.77
2018-09-04T23:27:22.970Z,21.33
2018-09-04T23:29:59.011Z,21.90
2018-09-04T23:32:35.297Z,21.10
2018-09-04T23:35:10.395Z,20.10
2018-09-04T23:37:44.447Z,20.93
2018-09-04T23:40:19.015Z,21.57
2018-09-04T23:42:54.144Z,22.10
2018-09-04T23:45:30.267Z,20.57
2018-09-04T23:48:06.134Z,21.80
2018-09-04T23:50:42.149Z,21.47
2018-09-04T23:53:16.359Z,19.20
2018-09-04T23:55:51.514Z,19.20
2018-09-04T23:58:27.093Z,21.23
